Time;durP1;ratioP1;P1;durP2;ratioP2;P2;SDS_P1;SDS_P2;PMS_P1;PMS_P2;Temp;Humidity;BMP_temperature;BMP_pressure;BME280_temperature;BME280_humidity;BME280_pressure;Samples;Min_cycle;Max_cycle;Signal;HPM_P1;HPM_P2
2022/01/02 00:01:02;;;;;;;3.80;2.58;;;17.60;70.70;;;;;;4900163;29;20087;-76
2022/01/02 00:03:35;;;;;;;3.05;2.50;;;17.60;70.70;;;;;;4901812;29;20029;-76
2022/01/02 00:06:02;;;;;;;3.83;2.42;;;17.60;70.70;;;;;;4902131;29;20028;-76
2022/01/02 00:08:31;;;;;;;4.25;2.83;;;17.60;70.70;;;;;;4899103;29;20036;-76
2022/01/02 00:10:58;;;;;;;5.40;2.58;;;17.60;70.70;;;;;;4900885;29;20024;-77
2022/01/02 00:13:29;;;;;;;3.50;2.53;;;17.60;70.70;;;;;;4899755;29;20033;-77
2022/01/02 00:16:07;;;;;;;4.13;2.50;;;17.60;70.60;;;;;;4900293;29;20052;-76
2022/01/02 00:18:35;;;;;;;3.63;2.58;;;17.60;70.60;;;;;;4899491;29;20029;-76
2022/01/02 00:21:06;;;;;;;3.47;2.55;;;17.60;70.70;;;;;;4899907;29;20036;-76
2022/01/02 00:23:56;;;;;;;3.22;2.65;;;17.60;70.70;;;;;;4900227;29;20080;-76
2022/01/02 00:26:33;;;;;;;2.58;2.30;;;17.60;70.60;;;;;;4899819;29;20067;-77
2022/01/02 00:29:01;;;;;;;2.78;2.30;;;17.60;70.60;;;;;;4899315;29;20036;-76
2022/01/02 00:31:26;;;;;;;2.58;2.20;;;17.50;70.60;;;;;;4899585;29;20045;-77
2022/01/02 00:33:53;;;;;;;3.88;2.70;;;17.60;70.60;;;;;;4900299;29;20025;-76
2022/01/02 00:36:21;;;;;;;3.30;2.40;;;17.50;70.50;;;;;;4900196;29;20029;-76
2022/01/02 00:38:46;;;;;;;4.43;2.88;;;17.60;70.50;;;;;;4898915;29;20063;-76
2022/01/02 00:41:20;;;;;;;3.40;2.50;;;17.50;70.50;;;;;;4914288;29;21289;-76
2022/01/02 00:43:48;;;;;;;4.25;2.28;;;17.50;70.50;;;;;;4901957;29;20059;-76
2022/01/02 00:46:18;;;;;;;3.03;2.40;;;17.50;70.50;;;;;;4899377;29;20036;-76
2022/01/02 00:48:46;;;;;;;3.80;2.40;;;17.50;70.40;;;;;;4916082;29;20533;-76
2022/01/02 00:51:46;;;;;;;2.92;2.63;;;17.50;70.40;;;;;;4902025;29;20037;-77
2022/01/02 00:54:15;;;;;;;2.75;2.53;;;17.50;70.30;;;;;;4900120;29;20452;-76
2022/01/02 00:56:44;;;;;;;3.03;2.60;;;17.50;70.50;;;;;;4904760;29;20017;-76
2022/01/02 00:59:22;;;;;;;3.33;2.30;;;17.50;70.40;;;;;;4901940;29;20032;-76
2022/01/02 01:01:57;;;;;;;4.05;2.40;;;17.50;70.30;;;;;;4901901;29;20172;-76
2022/01/02 01:04:25;;;;;;;2.70;2.40;;;17.50;70.40;;;;;;4902317;29;20032;-77
2022/01/02 01:06:57;;;;;;;4.18;2.38;;;17.50;70.40;;;;;;4903315;29;20039;-76
2022/01/02 01:09:31;;;;;;;3.63;2.38;;;17.50;70.30;;;;;;4902651;29;20044;-76
2022/01/02 01:11:59;;;;;;;3.55;2.45;;;17.50;70.30;;;;;;4904618;29;20040;-76
2022/01/02 01:14:27;;;;;;;2.67;2.38;;;17.50;70.30;;;;;;4907312;29;20056;-75
2022/01/02 01:16:53;;;;;;;2.80;2.40;;;17.50;70.30;;;;;;4906272;29;20092;-76
2022/01/02 01:19:20;;;;;;;3.58;2.50;;;17.50;70.30;;;;;;4903171;29;20061;-76
2022/01/02 01:21:46;;;;;;;3.25;2.67;;;17.50;70.30;;;;;;4902385;29;20438;-75
2022/01/02 01:24:13;;;;;;;2.95;2.40;;;17.50;70.30;;;;;;4902564;29;20032;-76
2022/01/02 01:26:40;;;;;;;3.38;2.40;;;17.50;70.30;;;;;;4899721;29;20020;-75
2022/01/02 01:29:06;;;;;;;3.40;2.53;;;17.50;70.20;;;;;;4899481;29;20032;-77
2022/01/02 01:31:31;;;;;;;3.20;2.53;;;17.50;70.30;;;;;;4901216;29;20033;-77
2022/01/02 01:33:57;;;;;;;2.60;2.40;;;17.50;70.20;;;;;;4901329;29;20025;-76
2022/01/02 01:36:23;;;;;;;3.17;2.50;;;17.50;70.20;;;;;;4900800;29;20032;-76
2022/01/02 01:38:48;;;;;;;2.67;2.40;;;17.40;70.10;;;;;;4898398;29;20021;-76
2022/01/02 01:41:27;;;;;;;3.63;2.50;;;17.50;70.30;;;;;;4898655;29;20101;-76
2022/01/02 01:44:06;;;;;;;2.72;2.28;;;17.50;70.20;;;;;;4900824;29;20107;-76
2022/01/02 01:46:35;;;;;;;2.85;2.47;;;17.40;70.20;;;;;;4900971;29;20024;-76
2022/01/02 01:49:22;;;;;;;2.83;2.55;;;17.50;70.20;;;;;;4900251;29;20084;-76
2022/01/02 01:51:48;;;;;;;3.50;2.55;;;17.40;70.10;;;;;;4901127;29;20044;-77
2022/01/02 01:54:16;;;;;;;3.05;2.40;;;17.40;70.10;;;;;;4899108;29;20036;-76
2022/01/02 01:56:43;;;;;;;3.63;2.30;;;17.40;70.10;;;;;;4899213;29;20032;-76
2022/01/02 01:59:08;;;;;;;3.78;2.60;;;17.40;70.00;;;;;;4901380;29;20021;-76
2022/01/02 02:01:35;;;;;;;3.00;2.42;;;17.40;70.20;;;;;;4899468;29;20069;-76
2022/01/02 02:04:00;;;;;;;3.28;2.40;;;17.40;70.00;;;;;;4900416;29;20037;-76
2022/01/02 02:06:26;;;;;;;2.85;2.50;;;17.40;70.00;;;;;;4901682;29;20033;-76
2022/01/02 02:08:54;;;;;;;3.22;2.22;;;17.40;70.10;;;;;;4902150;29;20039;-76
2022/01/02 02:11:21;;;;;;;3.40;2.50;;;17.40;70.00;;;;;;4902624;29;20029;-76
2022/01/02 02:13:47;;;;;;;3.70;2.63;;;17.40;70.00;;;;;;4900837;29;20386;-76
2022/01/02 02:16:12;;;;;;;2.47;2.25;;;17.40;70.00;;;;;;4900882;29;20068;-77
2022/01/02 02:18:39;;;;;;;3.65;2.72;;;17.40;70.10;;;;;;4899729;29;20481;-77
2022/01/02 02:21:05;;;;;;;3.05;2.55;;;17.40;70.00;;;;;;4896264;29;20044;-76
2022/01/02 02:23:31;;;;;;;3.10;2.60;;;17.40;70.00;;;;;;4897400;29;20647;-76
2022/01/02 02:25:56;;;;;;;3.03;2.28;;;17.40;70.00;;;;;;4896432;29;20507;-76
2022/01/02 02:28:26;;;;;;;2.72;2.20;;;17.40;70.00;;;;;;4896928;29;20028;-77
2022/01/02 02:30:52;;;;;;;3.30;2.35;;;17.40;70.00;;;;;;4897338;29;20032;-76
2022/01/02 02:33:19;;;;;;;2.30;2.10;;;17.40;70.00;;;;;;4896228;29;20582;-76
2022/01/02 02:35:49;;;;;;;4.50;2.60;;;17.40;69.90;;;;;;4896668;29;20065;-77
2022/01/02 02:38:18;;;;;;;3.85;2.25;;;17.40;70.00;;;;;;4898004;29;20031;-76
2022/01/02 02:40:45;;;;;;;4.15;2.65;;;17.40;69.90;;;;;;4897104;29;20029;-76
2022/01/02 02:51:23;;;;;;;3.03;2.28;;;17.40;70.00;;;;;;4922892;29;20115;-76
2022/01/02 02:53:49;;;;;;;3.45;2.40;;;17.40;69.90;;;;;;4925076;29;20044;-77
2022/01/02 02:56:21;;;;;;;3.47;2.40;;;17.40;70.00;;;;;;4922626;29;20035;-77
2022/01/02 02:58:49;;;;;;;2.95;2.50;;;17.40;70.00;;;;;;4921563;29;20115;-76
2022/01/02 03:01:18;;;;;;;3.80;2.58;;;17.30;69.90;;;;;;4919166;29;20046;-76
2022/01/02 03:03:46;;;;;;;3.20;2.65;;;17.40;69.90;;;;;;4918636;29;20039;-76
2022/01/02 03:06:13;;;;;;;3.83;2.50;;;17.40;69.90;;;;;;4919981;29;20027;-77
2022/01/02 03:08:40;;;;;;;3.58;2.40;;;17.40;69.90;;;;;;4919499;29;20435;-76
2022/01/02 03:11:09;;;;;;;3.03;2.22;;;17.40;69.90;;;;;;4920249;29;20039;-76
2022/01/02 03:13:36;;;;;;;3.38;2.15;;;17.40;69.90;;;;;;4916826;29;20060;-75
2022/01/02 03:16:04;;;;;;;2.60;2.38;;;17.30;69.80;;;;;;4913712;29;20064;-76
2022/01/02 03:18:29;;;;;;;3.47;2.22;;;17.40;69.90;;;;;;4913543;29;20032;-76
2022/01/02 03:20:57;;;;;;;3.90;2.55;;;17.40;69.90;;;;;;4912952;29;20066;-76
2022/01/02 03:23:22;;;;;;;2.83;2.13;;;17.30;69.80;;;;;;4913130;29;20127;-76
2022/01/02 03:25:48;;;;;;;2.78;2.40;;;17.30;69.80;;;;;;4914191;29;20115;-76
2022/01/02 03:28:14;;;;;;;3.35;2.30;;;17.30;69.80;;;;;;4913724;29;20059;-76
2022/01/02 03:30:41;;;;;;;2.83;2.28;;;17.30;69.80;;;;;;4913496;29;20048;-76
2022/01/02 03:33:08;;;;;;;3.22;2.50;;;17.30;69.80;;;;;;4914960;29;20028;-75
2022/01/02 03:35:33;;;;;;;3.83;2.42;;;17.30;69.80;;;;;;4915224;29;20094;-74
2022/01/02 03:37:59;;;;;;;2.80;2.20;;;17.30;70.70;;;;;;4915213;29;20424;-76
2022/01/02 03:40:25;;;;;;;2.78;2.30;;;17.30;69.70;;;;;;4915961;29;20490;-74
2022/01/02 03:42:51;;;;;;;3.33;2.30;;;17.30;69.70;;;;;;4918960;29;20055;-75
2022/01/02 03:45:17;;;;;;;3.75;2.20;;;17.30;69.70;;;;;;4900511;29;20064;-76
2022/01/02 03:47:43;;;;;;;3.72;2.00;;;17.30;69.80;;;;;;4899056;29;20032;-76
2022/01/02 03:50:09;;;;;;;3.35;2.10;;;17.30;69.70;;;;;;4900428;29;20559;-76
2022/01/02 03:52:36;;;;;;;3.88;2.58;;;17.30;69.70;;;;;;4900826;29;20112;-76
2022/01/02 03:55:03;;;;;;;3.95;2.40;;;17.30;69.70;;;;;;4900497;29;20032;-76
2022/01/02 03:57:29;;;;;;;3.60;2.22;;;17.30;69.70;;;;;;4901158;29;20052;-76
2022/01/02 03:59:55;;;;;;;2.92;2.25;;;17.30;69.70;;;;;;4899827;29;20029;-77
2022/01/02 05:45:27;;;;;;;3.17;1.52;;;18.60;66.20;;;;;;4921836;29;20059;-77
2022/01/02 05:47:53;;;;;;;3.80;1.70;;;18.70;66.40;;;;;;4920405;29;20127;-77
2022/01/02 05:50:19;;;;;;;2.95;1.50;;;18.70;66.30;;;;;;4921877;29;20060;-76
2022/01/02 05:52:45;;;;;;;2.50;1.40;;;18.80;66.20;;;;;;4920331;29;20032;-77
2022/01/02 05:55:13;;;;;;;2.72;1.60;;;18.80;66.00;;;;;;4918562;29;20420;-77
2022/01/02 05:57:39;;;;;;;3.22;1.73;;;18.80;65.90;;;;;;4919603;29;20036;-77
2022/01/02 06:00:06;;;;;;;3.08;1.63;;;18.80;65.80;;;;;;4918055;29;20111;-77
2022/01/02 06:02:31;;;;;;;2.85;1.40;;;18.90;65.70;;;;;;4916186;29;20032;-77
2022/01/02 06:05:02;;;;;;;2.25;1.52;;;19.00;65.70;;;;;;4916768;29;20545;-76
2022/01/02 06:07:30;;;;;;;3.63;1.73;;;19.00;65.50;;;;;;4916596;29;20548;-76
2022/01/02 06:09:56;;;;;;;2.08;1.48;;;19.00;65.30;;;;;;4919117;29;20043;-76
2022/01/02 06:12:23;;;;;;;2.45;1.80;;;19.00;65.40;;;;;;4918130;29;20040;-77
2022/01/02 06:14:49;;;;;;;2.85;1.33;;;19.10;65.40;;;;;;4917318;29;20058;-76
2022/01/02 06:17:16;;;;;;;7.82;1.90;;;19.10;65.40;;;;;;4914149;29;20881;-76
2022/01/02 06:19:41;;;;;;;2.50;1.50;;;19.10;65.30;;;;;;4912258;29;20032;-76
2022/01/02 06:22:07;;;;;;;2.75;1.40;;;19.20;65.40;;;;;;4911978;29;20059;-76
2022/01/02 06:24:34;;;;;;;2.38;1.40;;;19.20;65.40;;;;;;4912025;29;20047;-76
2022/01/02 06:26:59;;;;;;;3.28;1.40;;;19.30;65.40;;;;;;4912012;29;20067;-76
2022/01/02 06:29:25;;;;;;;2.45;1.40;;;19.30;65.40;;;;;;4912328;29;20123;-76
2022/01/02 06:31:51;;;;;;;2.10;1.48;;;19.40;65.40;;;;;;4912185;29;20036;-77
2022/01/02 06:34:17;;;;;;;2.38;1.30;;;19.40;65.20;;;;;;4911827;29;20028;-77
2022/01/02 06:36:42;;;;;;;3.00;1.40;;;19.40;65.30;;;;;;4911717;29;20047;-77
2022/01/02 06:39:08;;;;;;;1.65;1.25;;;19.40;65.20;;;;;;4910861;29;20086;-78
2022/01/02 06:41:34;;;;;;;2.78;1.50;;;19.50;65.30;;;;;;4911409;29;20806;-77
2022/01/02 06:43:59;;;;;;;3.78;1.77;;;19.40;65.40;;;;;;4911220;29;20558;-77
2022/01/02 06:46:31;;;;;;;2.72;1.40;;;19.40;65.50;;;;;;4911895;29;20063;-75
2022/01/02 06:48:57;;;;;;;2.63;1.40;;;19.30;65.50;;;;;;4911877;29;20032;-76
2022/01/02 06:51:22;;;;;;;2.05;1.58;;;19.30;65.80;;;;;;4911813;29;20039;-76
2022/01/02 06:53:48;;;;;;;2.55;1.33;;;19.30;65.80;;;;;;4911357;29;20035;-79
2022/01/02 06:56:13;;;;;;;2.10;1.40;;;19.20;66.00;;;;;;4911064;29;20593;-78
2022/01/02 06:58:40;;;;;;;2.78;1.50;;;19.20;66.10;;;;;;4911419;29;20343;-78
2022/01/02 07:01:06;;;;;;;2.83;1.40;;;19.10;66.30;;;;;;4911740;29;20048;-75
2022/01/02 07:03:33;;;;;;;2.50;1.40;;;19.10;66.30;;;;;;4911499;29;20027;-76
2022/01/02 07:06:00;;;;;;;3.08;1.40;;;19.10;66.40;;;;;;4910896;29;20036;-76
2022/01/02 07:08:27;;;;;;;2.67;1.55;;;19.00;66.70;;;;;;4911267;29;20027;-75
2022/01/02 07:10:54;;;;;;;2.15;1.30;;;19.00;66.60;;;;;;4911424;29;20028;-75
2022/01/02 07:13:20;;;;;;;2.80;1.80;;;18.90;66.70;;;;;;4911173;29;20484;-77
2022/01/02 07:15:45;;;;;;;2.35;1.60;;;18.90;66.70;;;;;;4910851;29;20079;-77
2022/01/02 07:18:11;;;;;;;2.67;1.50;;;18.90;66.80;;;;;;4911113;29;20108;-77
2022/01/02 07:20:36;;;;;;;2.90;1.40;;;18.90;66.90;;;;;;4911269;29;20131;-76
2022/01/02 07:23:03;;;;;;;3.28;1.40;;;18.80;66.90;;;;;;4911246;29;20040;-76
2022/01/02 07:25:29;;;;;;;1.70;1.40;;;18.80;66.90;;;;;;4910685;29;20036;-76
2022/01/02 07:27:54;;;;;;;3.08;1.33;;;18.80;67.10;;;;;;4911215;29;20046;-76
2022/01/02 07:30:21;;;;;;;1.98;1.40;;;18.70;67.10;;;;;;4911124;29;20036;-76
2022/01/02 07:32:46;;;;;;;4.05;1.40;;;18.70;67.20;;;;;;4910999;29;20107;-76
2022/01/02 07:35:12;;;;;;;3.15;1.50;;;18.70;67.30;;;;;;4912211;29;20144;-76
2022/01/02 07:37:38;;;;;;;2.13;1.40;;;18.60;67.30;;;;;;4913509;29;20020;-76
2022/01/02 07:40:05;;;;;;;2.40;1.48;;;18.60;67.30;;;;;;4918103;29;20439;-75
2022/01/02 07:42:31;;;;;;;3.13;1.33;;;18.60;67.40;;;;;;4912811;29;20036;-75
2022/01/02 07:44:58;;;;;;;2.08;1.50;;;18.60;67.50;;;;;;4911425;29;20059;-76
2022/01/02 07:47:23;;;;;;;3.22;1.38;;;18.50;67.60;;;;;;4910612;29;20497;-76
2022/01/02 07:49:49;;;;;;;2.83;1.52;;;18.50;67.70;;;;;;4910463;29;20032;-77
2022/01/02 07:52:15;;;;;;;2.65;1.63;;;18.50;67.80;;;;;;4910295;29;20600;-76
2022/01/02 07:54:41;;;;;;;2.65;1.60;;;18.50;67.80;;;;;;4910842;29;20028;-74
2022/01/02 07:57:07;;;;;;;1.88;1.38;;;18.50;67.80;;;;;;4909929;29;20420;-75
2022/01/02 07:59:33;;;;;;;1.67;1.30;;;18.50;67.90;;;;;;4910651;29;20048;-76
2022/01/02 08:58:16;;;;;;;2.70;1.40;;;18.30;69.50;;;;;;5556644;23;20109;-77
2022/01/02 09:00:41;;;;;;;3.95;1.85;;;18.30;69.40;;;;;;4893617;23;20042;-78
2022/01/02 09:03:07;;;;;;;4.18;1.42;;;18.30;69.60;;;;;;4995725;28;20030;-78
2022/01/02 09:05:33;;;;;;;2.83;1.70;;;18.30;69.60;;;;;;4996515;28;20034;-79
2022/01/02 09:08:00;;;;;;;3.90;1.80;;;18.30;69.60;;;;;;4997700;28;20835;-80
2022/01/02 09:10:25;;;;;;;3.80;1.90;;;18.20;69.70;;;;;;4997562;28;20038;-79
2022/01/02 09:12:51;;;;;;;3.67;1.75;;;18.30;69.70;;;;;;4996846;28;20037;-79
2022/01/02 09:15:17;;;;;;;3.08;1.52;;;18.20;69.50;;;;;;4997679;28;20480;-78
2022/01/02 09:17:42;;;;;;;3.35;1.40;;;18.20;69.50;;;;;;4997206;28;20045;-76
2022/01/02 09:20:09;;;;;;;2.50;1.70;;;18.20;69.50;;;;;;4994627;28;20472;-80
2022/01/02 09:22:39;;;;;;;3.17;1.70;;;18.20;69.50;;;;;;4998945;28;20038;-79
2022/01/02 09:25:07;;;;;;;3.88;1.70;;;18.20;69.50;;;;;;4996778;28;20034;-81
2022/01/02 09:27:33;;;;;;;3.42;1.60;;;18.20;69.60;;;;;;4996140;28;20320;-79
2022/01/02 09:29:58;;;;;;;3.08;1.98;;;18.20;69.70;;;;;;4995968;28;20481;-80
2022/01/02 09:32:26;;;;;;;6.15;1.60;;;18.20;69.70;;;;;;4996391;28;20042;-79
2022/01/02 09:34:51;;;;;;;2.92;2.00;;;18.20;69.80;;;;;;4995920;28;20035;-79
2022/01/02 09:37:17;;;;;;;4.53;1.80;;;18.20;69.80;;;;;;4996333;28;20026;-79
2022/01/02 09:39:44;;;;;;;3.67;1.85;;;18.20;69.90;;;;;;4996886;28;20101;-79
2022/01/02 09:42:12;;;;;;;5.65;1.75;;;18.20;69.80;;;;;;4995888;28;20046;-79
2022/01/02 09:44:37;;;;;;;4.20;1.90;;;18.20;69.70;;;;;;4995997;28;20074;-77
2022/01/02 09:47:05;;;;;;;3.58;1.73;;;18.20;69.70;;;;;;4995220;28;20173;-74
2022/01/02 09:49:34;;;;;;;3.97;1.85;;;18.20;69.90;;;;;;4993694;28;20725;-73
2022/01/02 09:52:00;;;;;;;4.47;1.80;;;18.20;69.70;;;;;;4992024;28;20042;-74
2022/01/02 09:54:27;;;;;;;3.72;1.67;;;18.10;69.60;;;;;;4992465;28;20120;-74
2022/01/02 09:56:53;;;;;;;3.72;1.90;;;18.10;69.60;;;;;;4989397;28;20503;-75
2022/01/02 09:59:18;;;;;;;3.47;1.80;;;18.00;69.60;;;;;;4989451;28;20034;-74
2022/01/02 10:01:44;;;;;;;4.53;2.00;;;18.00;69.60;;;;;;4989649;28;20532;-75
2022/01/02 10:04:09;;;;;;;3.78;1.80;;;18.00;69.60;;;;;;4989570;28;20034;-75
2022/01/02 10:06:48;;;;;;;10.40;2.50;;;18.00;69.60;;;;;;4988575;28;20121;-75
2022/01/02 10:09:34;;;;;;;2.95;2.03;;;18.00;69.80;;;;;;4990226;28;20030;-75
2022/01/02 10:12:30;;;;;;;6.43;2.70;;;18.00;70.30;;;;;;4989424;28;20444;-74
2022/01/02 10:15:11;;;;;;;4.32;2.13;;;18.10;70.70;;;;;;4988640;28;20034;-75
2022/01/02 10:17:57;;;;;;;4.32;2.30;;;18.10;70.70;;;;;;4989357;28;20014;-75
2022/01/02 10:20:25;;;;;;;3.75;2.00;;;18.10;70.70;;;;;;4988640;28;20039;-74
2022/01/02 10:23:04;;;;;;;3.75;2.33;;;18.10;70.70;;;;;;4988684;28;20038;-75
2022/01/02 10:25:36;;;;;;;5.65;2.10;;;18.20;70.80;;;;;;4988920;28;20029;-74
2022/01/02 10:28:26;;;;;;;4.15;2.22;;;18.20;70.80;;;;;;4988693;28;20109;-75
2022/01/02 10:30:57;;;;;;;7.07;2.35;;;18.20;70.90;;;;;;4988494;28;20034;-76
2022/01/02 10:33:23;;;;;;;3.95;2.15;;;18.10;70.90;;;;;;4988318;28;20539;-75
2022/01/02 10:35:56;;;;;;;5.93;2.63;;;18.20;71.00;;;;;;4988544;28;20019;-74
2022/01/02 10:38:22;;;;;;;6.07;2.50;;;18.20;71.30;;;;;;4989549;28;20486;-73
2022/01/02 10:40:50;;;;;;;4.35;2.10;;;18.20;71.40;;;;;;4990571;28;20038;-73
2022/01/02 10:43:27;;;;;;;3.85;2.17;;;18.20;71.50;;;;;;4993678;28;20034;-75
2022/01/02 10:45:55;;;;;;;19.40;2.70;;;18.20;71.60;;;;;;4988936;28;20029;-75
2022/01/02 10:48:35;;;;;;;16.52;3.22;;;18.20;71.60;;;;;;4991227;28;20105;-73
2022/01/02 10:51:15;;;;;;;12.40;2.60;;;18.20;72.00;;;;;;4990380;28;20042;-75
2022/01/02 10:53:55;;;;;;;6.68;2.60;;;18.20;72.00;;;;;;4991353;28;20105;-75
2022/01/02 10:56:22;;;;;;;9.93;2.70;;;18.20;72.20;;;;;;4973505;28;20034;-74
2022/01/02 10:58:48;;;;;;;8.65;2.50;;;18.20;72.00;;;;;;4955909;28;20037;-76
2022/01/02 11:01:15;;;;;;;8.30;2.63;;;18.20;72.10;;;;;;4990351;28;20077;-75
2022/01/02 11:03:45;;;;;;;5.32;2.35;;;18.20;72.20;;;;;;4990441;28;20054;-76
2022/01/02 11:06:14;;;;;;;14.90;3.15;;;18.20;72.20;;;;;;4989996;28;20026;-75
2022/01/02 11:08:45;;;;;;;5.68;2.40;;;18.20;72.20;;;;;;4989687;28;20030;-75
2022/01/02 11:11:10;;;;;;;6.75;2.90;;;18.20;72.40;;;;;;4991032;28;20058;-76
2022/01/02 11:13:36;;;;;;;7.65;2.90;;;18.20;72.40;;;;;;4990026;28;20108;-76
2022/01/02 11:16:04;;;;;;;7.38;2.42;;;18.20;72.40;;;;;;4972420;28;20054;-76
2022/01/02 11:18:32;;;;;;;7.10;2.90;;;18.20;72.50;;;;;;4989815;28;20072;-76
2022/01/02 11:20:59;;;;;;;10.05;2.90;;;18.30;72.50;;;;;;4990964;28;20119;-74
2022/01/02 11:23:36;;;;;;;16.85;3.15;;;18.30;72.60;;;;;;4987983;28;20027;-71
2022/01/02 11:26:37;;;;;;;14.55;3.13;;;18.30;72.40;;;;;;4987222;28;20042;-74
2022/01/02 11:29:03;;;;;;;7.75;2.70;;;18.20;72.10;;;;;;4987216;28;20765;-74
2022/01/02 11:31:34;;;;;;;11.30;3.08;;;18.20;72.10;;;;;;4987118;28;20034;-73
2022/01/02 11:34:00;;;;;;;10.90;2.88;;;18.20;71.90;;;;;;4986900;28;20049;-73
2022/01/02 11:36:29;;;;;;;12.98;3.00;;;18.10;71.80;;;;;;4986981;28;20114;-73
2022/01/02 11:39:05;;;;;;;13.13;2.95;;;18.10;71.80;;;;;;4986885;28;20556;-73
2022/01/02 11:41:51;;;;;;;11.85;2.78;;;18.10;71.90;;;;;;4987597;28;20030;-73
2022/01/02 11:44:20;;;;;;;6.78;2.50;;;18.00;71.80;;;;;;4986699;28;20030;-72
2022/01/02 11:46:56;;;;;;;6.03;2.60;;;18.00;71.80;;;;;;4986158;28;20049;-73
2022/01/02 11:49:39;;;;;;;10.20;3.28;;;18.00;71.70;;;;;;4986507;28;20039;-73
2022/01/02 11:52:07;;;;;;;10.98;2.72;;;18.00;71.70;;;;;;4986657;28;20125;-73
2022/01/02 11:54:33;;;;;;;10.23;2.58;;;17.90;71.70;;;;;;4986927;28;20038;-74
2022/01/02 11:57:15;;;;;;;8.77;2.92;;;17.90;72.70;;;;;;4986547;28;20053;-72
2022/01/02 11:59:45;;;;;;;5.93;2.67;;;17.90;71.70;;;;;;4987180;28;20477;-73
2022/01/02 12:02:26;;;;;;;7.78;2.78;;;17.80;71.60;;;;;;4986858;28;20069;-74
2022/01/02 12:07:40;;;;;;;7.22;2.75;;;17.90;71.50;;;;;;4987072;28;20054;-74
2022/01/02 12:10:17;;;;;;;5.30;2.63;;;17.80;71.50;;;;;;4987480;28;20579;-74
2022/01/02 12:13:17;;;;;;;5.63;2.80;;;17.80;71.40;;;;;;4986869;28;20121;-73
2022/01/02 12:16:02;;;;;;;8.23;2.67;;;17.80;71.30;;;;;;4987034;28;20022;-73
2022/01/02 12:18:29;;;;;;;4.60;2.33;;;17.80;71.40;;;;;;4986720;28;20038;-73
2022/01/02 12:21:00;;;;;;;6.95;2.67;;;17.70;71.30;;;;;;4986353;28;20118;-73
2022/01/02 12:23:34;;;;;;;5.03;2.55;;;17.80;71.30;;;;;;4987915;28;20137;-73
2022/01/02 12:26:03;;;;;;;5.25;2.55;;;17.80;71.20;;;;;;4990015;28;20039;-73
2022/01/02 12:28:37;;;;;;;5.65;2.53;;;17.80;71.30;;;;;;4993478;28;20037;-72
2022/01/02 12:31:05;;;;;;;4.97;2.60;;;17.80;71.10;;;;;;4991877;28;20042;-72
2022/01/02 12:33:31;;;;;;;5.50;2.55;;;17.80;71.10;;;;;;4988487;28;20144;-72
2022/01/02 12:36:07;;;;;;;5.93;2.58;;;17.70;71.00;;;;;;4988766;28;20050;-72
2022/01/02 12:38:54;;;;;;;7.07;2.65;;;17.70;71.00;;;;;;4991249;28;20027;-73
2022/01/02 12:41:23;;;;;;;7.10;2.97;;;17.70;70.90;;;;;;4991394;28;20050;-73
2022/01/02 12:44:06;;;;;;;6.57;2.45;;;17.70;71.00;;;;;;4991847;28;20099;-73
2022/01/02 12:46:43;;;;;;;7.93;2.70;;;17.70;70.90;;;;;;4991725;28;20451;-73
2022/01/02 12:49:12;;;;;;;4.88;2.25;;;17.70;70.90;;;;;;4991238;28;20772;-72
2022/01/02 12:51:43;;;;;;;7.30;2.90;;;17.70;70.90;;;;;;4991630;28;20031;-73
2022/01/02 12:54:11;;;;;;;5.57;2.67;;;17.70;70.70;;;;;;4990715;28;20034;-73
2022/01/02 12:56:43;;;;;;;5.85;2.35;;;17.70;70.80;;;;;;4990867;28;20381;-74
2022/01/02 12:59:23;;;;;;;4.80;2.60;;;17.70;70.70;;;;;;4989691;28;20707;-74
2022/01/02 13:01:59;;;;;;;5.22;2.33;;;17.70;70.70;;;;;;4990430;28;20058;-74
2022/01/02 13:04:46;;;;;;;5.28;2.55;;;17.70;70.70;;;;;;4990480;28;20500;-74
2022/01/02 13:07:14;;;;;;;5.20;2.33;;;17.60;70.60;;;;;;4989750;28;20372;-73
2022/01/02 13:09:43;;;;;;;7.35;2.72;;;17.70;70.80;;;;;;4990439;28;20027;-74
2022/01/02 13:12:12;;;;;;;6.78;2.45;;;17.70;70.80;;;;;;4990435;28;20045;-73
2022/01/02 13:14:39;;;;;;;7.75;2.97;;;17.70;70.70;;;;;;4990383;28;20014;-74
2022/01/02 13:17:15;;;;;;;5.32;2.55;;;17.70;70.70;;;;;;4989748;28;20029;-73
2022/01/02 13:19:57;;;;;;;6.40;2.67;;;17.70;70.50;;;;;;4990195;28;20713;-73
2022/01/02 13:22:25;;;;;;;7.35;2.50;;;17.70;70.40;;;;;;4990571;28;20465;-73
2022/01/02 13:24:55;;;;;;;6.85;2.47;;;17.70;70.40;;;;;;4990929;28;20038;-73
2022/01/02 13:27:22;;;;;;;6.88;2.63;;;17.70;70.30;;;;;;4991386;28;20073;-73
2022/01/02 13:30:16;;;;;;;6.93;3.20;;;17.70;70.30;;;;;;4990712;28;20014;-73
2022/01/02 13:32:43;;;;;;;7.07;2.92;;;17.70;70.10;;;;;;4988632;28;20470;-73
2022/01/02 13:35:12;;;;;;;6.38;2.65;;;17.70;70.50;;;;;;4991652;28;20609;-74
2022/01/02 13:37:42;;;;;;;8.23;2.70;;;17.70;70.20;;;;;;4991320;28;20073;-73
2022/01/02 13:40:24;;;;;;;5.32;2.50;;;17.70;70.20;;;;;;4990981;28;20108;-73
2022/01/02 13:42:51;;;;;;;5.80;2.42;;;17.70;70.10;;;;;;4990150;28;20034;-74
2022/01/02 13:45:22;;;;;;;7.45;2.50;;;17.60;70.20;;;;;;4989638;28;20030;-73
2022/01/02 13:47:48;;;;;;;7.50;2.97;;;17.70;70.20;;;;;;4990289;28;20110;-73
2022/01/02 13:50:41;;;;;;;4.88;2.40;;;17.60;70.10;;;;;;4990034;28;20447;-73
2022/01/02 13:53:12;;;;;;;8.63;2.97;;;17.60;70.10;;;;;;4989903;28;20027;-73
2022/01/02 13:55:40;;;;;;;5.30;2.22;;;17.60;70.20;;;;;;4972253;28;20428;-73
2022/01/02 13:58:42;;;;;;;8.15;2.47;;;17.60;70.10;;;;;;4990004;28;20026;-74
2022/01/02 14:01:32;;;;;;;8.10;2.70;;;17.60;70.00;;;;;;4978843;28;20553;-73
2022/01/02 14:03:59;;;;;;;6.22;2.50;;;17.60;70.10;;;;;;4991226;28;20030;-73
2022/01/02 14:06:31;;;;;;;5.63;2.40;;;17.60;70.20;;;;;;4993642;28;20038;-73
2022/01/02 14:09:08;;;;;;;6.27;2.67;;;17.60;70.10;;;;;;4994297;28;20037;-73
2022/01/02 14:11:35;;;;;;;5.18;2.00;;;17.60;70.00;;;;;;4991126;28;20264;-74
2022/01/02 14:19:39;;;;;;;7.20;2.20;;;17.60;69.90;;;;;;4989824;28;20034;-73
2022/01/02 14:22:06;;;;;;;6.13;2.40;;;17.60;70.00;;;;;;4989573;28;20049;-73
2022/01/02 14:24:32;;;;;;;6.35;2.20;;;17.60;70.00;;;;;;4989411;28;20035;-73
2022/01/02 14:26:58;;;;;;;5.38;2.33;;;17.60;69.90;;;;;;4989358;28;20484;-73
2022/01/02 14:29:24;;;;;;;6.93;2.33;;;17.60;69.90;;;;;;4989332;28;20022;-74
2022/01/02 14:31:51;;;;;;;5.75;2.10;;;17.60;69.90;;;;;;4988444;28;20109;-73
2022/01/02 14:34:17;;;;;;;5.47;2.35;;;17.60;69.90;;;;;;4989224;28;20038;-73
2022/01/02 14:36:43;;;;;;;4.82;2.13;;;17.60;69.80;;;;;;4989266;28;20507;-73
2022/01/02 14:39:09;;;;;;;4.45;2.05;;;17.60;69.80;;;;;;4988318;28;20030;-74
2022/01/02 14:41:39;;;;;;;4.38;2.13;;;17.60;69.80;;;;;;4988895;28;20503;-73
2022/01/02 14:44:09;;;;;;;4.47;1.95;;;17.60;69.80;;;;;;4988725;28;20030;-73
2022/01/02 14:46:36;;;;;;;5.95;2.45;;;17.60;69.70;;;;;;4988838;28;20033;-73
2022/01/02 14:49:02;;;;;;;4.90;2.00;;;17.60;69.80;;;;;;4988619;28;20400;-73
2022/01/02 14:51:27;;;;;;;5.35;2.20;;;17.50;69.70;;;;;;4986857;28;20747;-73
2022/01/02 14:53:53;;;;;;;5.20;2.17;;;17.60;69.70;;;;;;4988178;28;20057;-74
2022/01/02 14:56:19;;;;;;;4.70;2.00;;;17.50;69.70;;;;;;4988205;28;20465;-73
2022/01/02 14:58:44;;;;;;;5.68;2.22;;;17.50;69.70;;;;;;4988105;28;20033;-73
2022/01/02 15:01:10;;;;;;;4.30;2.10;;;17.50;69.60;;;;;;4987470;28;20129;-74
2022/01/02 15:03:35;;;;;;;4.68;2.10;;;17.50;69.60;;;;;;4987926;28;20543;-73
2022/01/02 15:06:03;;;;;;;5.50;2.42;;;17.50;69.60;;;;;;4988180;28;20104;-73
2022/01/02 15:08:30;;;;;;;5.60;2.30;;;17.50;69.60;;;;;;4987997;28;20037;-73
2022/01/02 15:10:57;;;;;;;5.13;2.25;;;17.50;69.60;;;;;;4988542;28;20092;-73
2022/01/02 15:13:22;;;;;;;4.88;2.08;;;17.50;69.50;;;;;;4988176;28;20038;-73
2022/01/02 15:15:48;;;;;;;6.78;2.55;;;17.50;69.60;;;;;;4987553;28;20038;-73
2022/01/02 15:18:14;;;;;;;4.07;2.00;;;17.50;69.60;;;;;;4988109;28;20030;-73
2022/01/02 15:20:39;;;;;;;4.47;1.92;;;17.50;69.50;;;;;;4987207;28;20121;-73
2022/01/02 15:23:05;;;;;;;6.00;2.10;;;17.50;69.50;;;;;;4987880;28;20049;-74
2022/01/02 15:25:31;;;;;;;6.00;2.13;;;17.50;69.50;;;;;;4987231;28;20036;-74
2022/01/02 15:27:57;;;;;;;5.25;2.13;;;17.50;69.50;;;;;;4987489;28;20050;-74
2022/01/02 15:30:23;;;;;;;5.45;2.03;;;17.50;69.40;;;;;;4987762;28;20030;-73
2022/01/02 15:32:49;;;;;;;4.15;2.20;;;17.50;69.40;;;;;;4987475;28;20036;-73
2022/01/02 15:35:15;;;;;;;4.97;2.15;;;17.50;69.40;;;;;;4987653;28;20485;-73
2022/01/02 15:37:45;;;;;;;3.90;2.05;;;17.50;69.40;;;;;;4987365;28;20437;-74
2022/01/02 15:40:11;;;;;;;3.92;1.88;;;17.40;69.30;;;;;;4987229;28;20378;-74
2022/01/02 15:42:37;;;;;;;4.95;2.20;;;17.50;69.40;;;;;;4987119;28;20478;-73
2022/01/02 15:45:06;;;;;;;3.85;1.90;;;17.50;69.40;;;;;;4988151;28;20034;-74
2022/01/02 15:47:33;;;;;;;4.57;1.90;;;17.50;69.30;;;;;;4989816;28;20026;-73
2022/01/02 15:49:59;;;;;;;5.28;2.10;;;17.40;69.30;;;;;;4991735;28;20046;-72
2022/01/02 15:52:24;;;;;;;3.67;1.95;;;17.50;69.30;;;;;;4988855;28;20030;-73